Time;durP1;ratioP1;P1;durP2;ratioP2;P2;SDS_P1;SDS_P2;PMS_P1;PMS_P2;Temp;Humidity;BMP_temperature;BMP_pressure;BME280_temperature;BME280_humidity;BME280_pressure;Samples;Min_cycle;Max_cycle;Signal;HPM_P1;HPM_P2
2021/01/17 00:01:04;;;;;;;;;;;;;;;-0.56;100.00;100720.91;5014972;28;20683;-69
2021/01/17 00:03:48;;;;;;;42.75;19.52;;;;;;;-0.53;100.00;100726.03;5014248;28;19963;-69
2021/01/17 00:06:32;;;;;;;;;;;;;;;-0.53;100.00;100716.41;5015933;28;20053;-68
2021/01/17 00:09:16;;;;;;;37.55;20.17;;;;;;;-0.50;100.00;100715.44;5015059;28;19920;-68
2021/01/17 00:12:03;;;;;;;40.20;20.25;;;;;;;-0.52;100.00;100717.25;5000271;28;20061;-69
2021/01/17 00:14:47;;;;;;;41.40;20.35;;;;;;;-0.51;100.00;100705.88;5015445;28;20049;-70
2021/01/17 00:17:31;;;;;;;;;;;;;;;-0.56;100.00;100705.19;5015307;28;20107;-69
2021/01/17 00:20:20;;;;;;;39.67;21.13;;;;;;;-0.58;100.00;100701.81;5013893;28;19920;-69
2021/01/17 00:23:05;;;;;;;40.67;20.63;;;;;;;-0.54;100.00;100708.63;5014175;28;20096;-69
2021/01/17 00:25:49;;;;;;;40.08;21.63;;;;;;;-0.44;100.00;100695.06;5014190;28;20052;-69
2021/01/17 00:28:33;;;;;;;40.63;21.23;;;;;;;-0.46;100.00;100691.66;5014157;28;20057;-68
2021/01/17 00:31:18;;;;;;;41.97;21.23;;;;;;;-0.49;100.00;100685.72;5014015;28;20136;-69
2021/01/17 00:34:02;;;;;;;41.03;22.33;;;;;;;-0.45;100.00;100682.06;5013825;28;20045;-69
2021/01/17 00:36:46;;;;;;;43.65;23.23;;;;;;;-0.39;100.00;100677.41;5013952;28;20539;-69
2021/01/17 00:39:30;;;;;;;42.28;23.13;;;;;;;-0.44;100.00;100662.81;5014853;28;20095;-69
2021/01/17 00:42:15;;;;;;;;;;;;;;;-0.39;100.00;100671.28;5013999;28;20133;-68
2021/01/17 00:44:59;;;;;;;43.22;23.73;;;;;;;-0.43;100.00;100664.50;5013815;28;19967;-69
2021/01/17 00:47:47;;;;;;;45.58;23.35;;;;;;;-0.37;100.00;100659.84;5013639;28;20056;-68
2021/01/17 00:50:31;;;;;;;42.15;23.10;;;;;;;-0.38;100.00;100652.03;5013267;28;20053;-68
2021/01/17 00:53:15;;;;;;;;;;;;;;;-0.40;100.00;100648.66;5014036;28;20045;-67
2021/01/17 00:56:00;;;;;;;46.67;22.60;;;;;;;-0.36;100.00;100650.19;5014313;28;19967;-69
2021/01/17 00:58:44;;;;;;;45.55;24.85;;;;;;;-0.41;100.00;100637.31;5014487;28;20060;-69
2021/01/17 01:01:29;;;;;;;;;;;;;;;-0.41;100.00;100639.09;5014965;28;20447;-69
2021/01/17 01:04:17;;;;;;;41.33;21.20;;;;;;;-0.39;100.00;100632.00;5014312;28;19920;-69
2021/01/17 01:07:01;;;;;;;44.35;22.70;;;;;;;-0.38;100.00;100631.09;5013463;28;20100;-66
2021/01/17 01:09:45;;;;;;;43.35;23.90;;;;;;;-0.34;100.00;100627.44;5013991;28;20057;-68
2021/01/17 01:12:29;;;;;;;;;;;;;;;-0.36;100.00;100624.00;5013716;28;20091;-69
2021/01/17 01:15:13;;;;;;;44.78;23.95;;;;;;;-0.41;100.00;100616.34;5014118;28;19928;-69
2021/01/17 01:17:58;;;;;;;47.67;25.00;;;;;;;-0.40;100.00;100619.84;5012979;28;20049;-69
2021/01/17 01:20:42;;;;;;;47.15;26.00;;;;;;;-0.42;100.00;100625.13;4999939;28;20111;-69
2021/01/17 01:23:26;;;;;;;;;;;;;;;-0.38;100.00;100605.75;5013284;28;20049;-69
2021/01/17 01:26:10;;;;;;;47.60;23.73;;;;;;;-0.29;100.00;100609.72;5012873;28;19929;-69
2021/01/17 01:28:55;;;;;;;50.95;26.42;;;;;;;-0.35;100.00;100610.03;5013949;28;20786;-69
2021/01/17 01:31:40;;;;;;;48.30;24.85;;;;;;;-0.32;100.00;100609.88;5013852;28;20518;-68
2021/01/17 01:34:24;;;;;;;45.22;24.77;;;;;;;-0.35;100.00;100607.41;5013693;28;20045;-69
2021/01/17 01:37:08;;;;;;;54.63;26.25;;;;;;;-0.42;100.00;100595.50;5013912;28;20044;-68
2021/01/17 01:39:53;;;;;;;46.08;24.73;;;;;;;-0.38;100.00;100602.28;5013676;28;20133;-68
2021/01/17 01:42:40;;;;;;;;;;;;;;;-0.31;100.00;100601.09;5013951;28;20053;-69
2021/01/17 01:45:24;;;;;;;46.97;25.27;;;;;;;-0.34;100.00;100599.47;5012836;28;19924;-69
2021/01/17 01:48:08;;;;;;;;;;;;;;;-0.29;100.00;100594.00;5014268;28;20188;-69
2021/01/17 01:50:52;;;;;;;44.50;22.95;;;;;;;-0.24;100.00;100597.28;5012605;28;20336;-69
2021/01/17 01:53:37;;;;;;;49.45;23.77;;;;;;;-0.22;100.00;100593.66;5013794;28;20044;-69
2021/01/17 01:56:22;;;;;;;46.47;23.30;;;;;;;-0.29;100.00;100591.41;5013423;28;20049;-68
2021/01/17 01:59:06;;;;;;;47.70;24.05;;;;;;;-0.31;100.00;100590.63;5012648;28;20099;-69
2021/01/17 02:01:50;;;;;;;;;;;;;;;-0.31;100.00;100588.00;5013092;28;20061;-69
2021/01/17 02:04:37;;;;;;;50.40;25.67;;;;;;;-0.34;100.00;100586.34;5012313;28;20282;-68
2021/01/17 02:07:38;;;;;;;47.10;25.25;;;;;;;-0.40;100.00;100591.03;5012590;28;20515;-69
2021/01/17 02:10:22;;;;;;;52.47;25.67;;;;;;;-0.46;100.00;100575.56;5012518;28;20145;-69
2021/01/17 02:13:36;;;;;;;50.20;26.80;;;;;;;-0.46;100.00;100580.81;5012311;28;20044;-69
2021/01/17 02:16:21;;;;;;;54.10;27.85;;;;;;;-0.46;100.00;100580.81;5012521;28;20056;-69
2021/01/17 02:19:08;;;;;;;50.97;25.92;;;;;;;-0.42;100.00;100582.41;5012164;28;20048;-69
2021/01/17 02:21:59;;;;;;;50.65;25.98;;;;;;;-0.47;100.00;100585.22;5013407;28;20056;-68
2021/01/17 02:25:10;;;;;;;49.17;24.35;;;;;;;-0.49;100.00;100591.44;5013285;28;20454;-69
2021/01/17 02:27:55;;;;;;;48.13;25.60;;;;;;;-0.54;100.00;100589.00;5012154;28;20084;-68
2021/01/17 02:30:50;;;;;;;54.10;27.05;;;;;;;-0.53;100.00;100589.88;5012125;28;20418;-69
2021/01/17 02:33:36;;;;;;;45.72;24.58;;;;;;;-0.53;100.00;100589.88;5012320;28;20087;-69
2021/01/17 02:36:38;;;;;;;49.67;26.20;;;;;;;-0.46;100.00;100580.81;5012317;28;20053;-69
2021/01/17 02:39:29;;;;;;;51.33;25.98;;;;;;;-0.51;100.00;100577.56;5012944;28;20069;-68
2021/01/17 02:42:15;;;;;;;49.88;26.60;;;;;;;-0.47;100.00;100579.13;5012011;28;20048;-68
2021/01/17 02:45:00;;;;;;;51.63;24.77;;;;;;;-0.43;100.00;100567.59;5012337;28;20041;-69
2021/01/17 02:47:44;;;;;;;48.92;25.23;;;;;;;-0.38;100.00;100563.00;4998672;28;20096;-68
2021/01/17 02:50:28;;;;;;;47.88;24.35;;;;;;;-0.36;100.00;100566.38;5011781;28;20133;-68
2021/01/17 02:53:24;;;;;;;48.55;24.75;;;;;;;-0.39;100.00;100556.91;5015534;28;20478;-69
2021/01/17 02:56:12;;;;;;;49.88;25.52;;;;;;;-0.39;100.00;100559.53;5015610;28;20048;-69
2021/01/17 02:58:57;;;;;;;55.78;27.10;;;;;;;-0.43;100.00;100552.72;5015442;28;20065;-68
2021/01/17 03:01:44;;;;;;;53.13;26.10;;;;;;;-0.42;100.00;100556.19;5015442;28;20103;-68
2021/01/17 03:04:44;;;;;;;50.40;25.38;;;;;;;-0.41;100.00;100552.66;5015647;28;20100;-68
2021/01/17 03:07:30;;;;;;;50.55;25.13;;;;;;;-0.42;100.00;100553.59;5015705;28;20120;-69
2021/01/17 03:10:13;;;;;;;48.45;24.05;;;;;;;-0.41;100.00;100547.41;5016623;28;20402;-68
2021/01/17 03:12:58;;;;;;;;;;;;;;;-0.38;100.00;100542.91;5015760;28;20045;-69
2021/01/17 03:15:42;;;;;;;49.22;24.95;;;;;;;-0.35;100.00;100548.00;5016266;28;19963;-68
2021/01/17 03:18:26;;;;;;;;;;;;;;;-0.38;100.00;100549.91;5016879;28;20201;-66
2021/01/17 03:21:10;;;;;;;49.97;24.90;;;;;;;-0.37;100.00;100539.34;5015597;28;19948;-68
2021/01/17 03:23:55;;;;;;;45.88;24.58;;;;;;;-0.37;100.00;100535.88;5016353;28;20084;-68
2021/01/17 03:26:39;;;;;;;46.33;24.83;;;;;;;-0.39;100.00;100537.72;5015595;28;20060;-69
2021/01/17 03:29:23;;;;;;;50.33;25.08;;;;;;;-0.43;100.00;100533.56;5015117;28;20088;-68
2021/01/17 03:32:07;;;;;;;50.22;25.88;;;;;;;-0.44;100.00;100531.84;5001382;28;20099;-69
2021/01/17 03:34:51;;;;;;;44.88;24.27;;;;;;;-0.42;100.00;100535.25;5014909;28;20125;-69
2021/01/17 03:37:35;;;;;;;44.80;23.10;;;;;;;-0.41;100.00;100542.19;5001312;28;20471;-69
2021/01/17 03:40:19;;;;;;;46.08;24.95;;;;;;;-0.33;100.00;100545.31;5014717;28;20522;-69
2021/01/17 03:43:03;;;;;;;49.38;25.13;;;;;;;-0.37;100.00;100539.34;5015581;28;20068;-69
2021/01/17 03:45:48;;;;;;;46.63;23.92;;;;;;;-0.38;100.00;100542.91;5015920;28;20107;-68
2021/01/17 03:48:32;;;;;;;47.22;25.48;;;;;;;-0.37;100.00;100533.25;5014663;28;20052;-69
2021/01/17 03:51:16;;;;;;;51.55;26.70;;;;;;;-0.37;100.00;100528.88;5053603;23;20057;-64
2021/01/17 03:54:00;;;;;;;46.97;25.17;;;;;;;-0.36;100.00;100540.19;5020446;28;20053;-66
2021/01/17 03:56:46;;;;;;;45.00;24.88;;;;;;;-0.26;100.00;100541.47;5035233;28;20144;-66
2021/01/17 03:59:30;;;;;;;49.85;25.23;;;;;;;-0.29;100.00;100539.00;5035219;28;20049;-66
2021/01/17 04:02:14;;;;;;;;;;;;;;;-0.35;100.00;100541.94;5034879;28;20048;-65
2021/01/17 04:04:58;;;;;;;46.30;22.98;;;;;;;-0.38;100.00;100536.81;5035061;28;19924;-66
2021/01/17 04:07:42;;;;;;;;;;;;;;;-0.38;100.00;100547.28;5035494;28;20468;-66
2021/01/17 04:10:26;;;;;;;47.58;23.67;;;;;;;-0.37;100.00;100533.25;5035149;28;19920;-65
2021/01/17 04:13:10;;;;;;;;;;;;;;;-0.40;100.00;100541.25;5035708;28;20044;-65
2021/01/17 04:15:54;;;;;;;45.85;23.42;;;;;;;-0.42;100.00;100540.50;5020227;28;19962;-65
2021/01/17 04:18:38;;;;;;;;;;;;;;;-0.40;100.00;100539.50;5034610;28;20099;-65
2021/01/17 04:21:22;;;;;;;45.33;22.93;;;;;;;-0.42;100.00;100535.25;5020061;28;19920;-65
2021/01/17 04:24:06;;;;;;;46.70;23.50;;;;;;;-0.41;100.00;100544.81;5034731;28;20790;-65
2021/01/17 04:26:56;;;;;;;47.95;24.02;;;;;;;-0.39;100.00;100546.44;5033799;28;20110;-65
2021/01/17 04:29:40;;;;;;;50.90;25.50;;;;;;;-0.38;100.00;100553.38;5033816;28;20095;-66
2021/01/17 04:32:24;;;;;;;;;;;;;;;-0.35;100.00;100558.47;5020176;28;20051;-66
2021/01/17 04:35:08;;;;;;;46.97;24.60;;;;;;;-0.34;100.00;100564.56;5019648;28;19980;-65
2021/01/17 04:37:59;;;;;;;47.83;24.52;;;;;;;-0.35;100.00;100565.50;5034774;28;20461;-66
2021/01/17 04:40:43;;;;;;;48.80;24.58;;;;;;;-0.35;100.00;100570.72;5033427;28;20115;-66
2021/01/17 04:43:58;;;;;;;50.13;24.95;;;;;;;-0.34;100.00;100559.34;5019601;28;20048;-66
2021/01/17 04:46:43;;;;;;;47.20;24.33;;;;;;;-0.32;100.00;100562.72;5033545;28;20067;-66
2021/01/17 04:49:28;;;;;;;45.13;23.77;;;;;;;-0.30;100.00;100567.00;5033340;28;20051;-66
2021/01/17 04:52:13;;;;;;;47.28;23.55;;;;;;;-0.28;100.00;100565.13;5033702;28;20041;-66
2021/01/17 04:54:57;;;;;;;46.40;23.85;;;;;;;-0.20;100.00;100565.66;5033622;28;20517;-66
2021/01/17 04:57:54;;;;;;;43.33;22.45;;;;;;;-0.23;100.00;100567.56;5034397;28;20099;-66
2021/01/17 05:00:40;;;;;;;44.85;22.88;;;;;;;-0.21;100.00;100574.41;5033504;28;20551;-66
2021/01/17 05:03:33;;;;;;;44.15;23.08;;;;;;;-0.30;100.00;100572.22;5033286;28;20049;-66
2021/01/17 05:06:28;;;;;;;48.85;22.88;;;;;;;-0.30;100.00;100560.88;5034395;28;20128;-66
2021/01/17 05:09:19;;;;;;;46.40;22.60;;;;;;;-0.34;100.00;100559.34;5033427;28;20096;-66
2021/01/17 05:12:13;;;;;;;45.53;20.83;;;;;;;-0.30;100.00;100558.25;5034256;28;20556;-66
2021/01/17 05:14:58;;;;;;;44.22;21.90;;;;;;;-0.40;100.00;100559.59;5032801;28;20084;-66
2021/01/17 05:17:42;;;;;;;42.28;20.85;;;;;;;-0.48;100.00;100562.56;5034091;28;20052;-66
2021/01/17 05:20:27;;;;;;;46.05;22.10;;;;;;;-0.49;100.00;100565.25;5019582;28;20092;-65
2021/01/17 05:23:11;;;;;;;;;;;;;;;-0.41;100.00;100563.13;5033227;28;20048;-66
2021/01/17 05:25:56;;;;;;;41.73;21.17;;;;;;;-0.51;100.00;100567.09;5032915;28;19963;-66
2021/01/17 05:28:40;;;;;;;41.75;21.42;;;;;;;-0.56;100.00;100558.56;5033878;28;20555;-66
2021/01/17 05:31:25;;;;;;;49.78;23.88;;;;;;;-0.51;100.00;100559.22;5033805;28;20119;-66
2021/01/17 05:34:11;;;;;;;48.13;23.33;;;;;;;-0.55;100.00;100562.91;5032745;28;20091;-66
2021/01/17 05:37:01;;;;;;;45.50;21.77;;;;;;;-0.55;100.00;100552.44;5032459;28;20052;-66
2021/01/17 05:40:00;;;;;;;43.58;22.05;;;;;;;-0.59;100.00;100558.72;5033310;28;20047;-63
2021/01/17 05:42:46;;;;;;;42.75;21.77;;;;;;;-0.57;100.00;100564.72;5018561;28;20111;-65
2021/01/17 05:45:30;;;;;;;47.63;23.00;;;;;;;-0.59;100.00;100563.94;5032814;28;20047;-66
2021/01/17 05:48:14;;;;;;;48.42;24.17;;;;;;;-0.57;100.00;100565.59;5018698;28;20100;-66
2021/01/17 05:50:58;;;;;;;50.70;23.52;;;;;;;-0.59;100.00;100569.19;5032185;28;20133;-65
2021/01/17 05:53:43;;;;;;;45.28;22.55;;;;;;;-0.53;100.00;100568.94;5032202;28;20095;-66
2021/01/17 05:56:31;;;;;;;39.72;20.67;;;;;;;-0.48;100.00;100574.78;5033404;28;20043;-66
2021/01/17 05:59:15;;;;;;;47.05;22.65;;;;;;;-0.45;100.00;100572.91;5032353;28;20517;-67
2021/01/17 06:01:59;;;;;;;44.10;21.90;;;;;;;-0.47;100.00;100576.50;5033090;28;20094;-66
2021/01/17 06:04:47;;;;;;;45.97;21.23;;;;;;;-0.47;100.00;100579.97;5032343;28;20052;-67
2021/01/17 06:07:32;;;;;;;47.53;23.55;;;;;;;-0.53;100.00;100569.75;5033118;28;20052;-65
2021/01/17 06:10:21;;;;;;;47.63;23.20;;;;;;;-0.48;100.00;100577.41;5018062;28;20043;-65
2021/01/17 06:13:05;;;;;;;45.13;22.35;;;;;;;-0.47;100.00;100579.13;5018082;28;20037;-66
2021/01/17 06:15:48;;;;;;;;;;;;;;;-0.46;100.00;100583.44;5018575;28;20052;-65
2021/01/17 06:18:32;;;;;;;57.00;26.73;;;;;;;-0.46;100.00;100565.97;5033335;28;19920;-65
2021/01/17 06:21:17;;;;;;;47.08;24.00;;;;;;;-0.41;100.00;100568.38;5032990;28;20173;-65
2021/01/17 06:24:06;;;;;;;52.38;23.65;;;;;;;-0.42;100.00;100571.91;5033268;28;20137;-65
2021/01/17 06:26:53;;;;;;;48.80;23.20;;;;;;;-0.44;100.00;100561.50;5033612;28;20418;-65
2021/01/17 06:29:42;;;;;;;53.58;25.95;;;;;;;-0.40;100.00;100573.56;5037261;28;20052;-66
2021/01/17 06:32:30;;;;;;;50.17;24.63;;;;;;;-0.45;100.00;100572.06;5036936;28;20052;-67
2021/01/17 06:35:14;;;;;;;59.13;27.92;;;;;;;-0.41;100.00;100563.13;5036782;28;20563;-65
2021/01/17 06:38:19;;;;;;;54.22;26.27;;;;;;;-0.40;100.00;100565.69;5036754;28;20426;-65
2021/01/17 06:41:04;;;;;;;47.80;20.48;;;;;;;-0.42;100.00;100571.91;5035962;28;20052;-65
2021/01/17 06:43:49;;;;;;;54.28;24.48;;;;;;;-0.44;100.00;100569.34;5036841;28;20071;-67
2021/01/17 06:46:43;;;;;;;52.63;24.50;;;;;;;-0.38;100.00;100569.09;5035634;28;20143;-66
2021/01/17 06:49:32;;;;;;;55.33;24.27;;;;;;;-0.39;100.00;100572.63;5036547;28;20049;-67
2021/01/17 06:52:16;;;;;;;48.38;21.55;;;;;;;-0.39;100.00;100574.38;5035804;28;20048;-67
2021/01/17 06:55:00;;;;;;;49.78;21.33;;;;;;;-0.37;100.00;100585.63;5035435;28;20040;-65
2021/01/17 06:57:44;;;;;;;;;;;;;;;-0.36;100.00;100579.47;5036774;28;20100;-65
2021/01/17 07:00:32;;;;;;;59.75;25.20;;;;;;;-0.36;100.00;100585.59;5036456;28;19920;-65
2021/01/17 07:03:17;;;;;;;49.65;24.05;;;;;;;-0.36;100.00;100587.34;5021742;28;20056;-64
2021/01/17 07:06:13;;;;;;;55.42;24.13;;;;;;;-0.35;100.00;100594.31;5036264;28;20064;-66
2021/01/17 07:09:08;;;;;;;48.97;23.42;;;;;;;-0.31;100.00;100596.69;5035432;28;20091;-67
2021/01/17 07:12:13;;;;;;;52.08;24.10;;;;;;;-0.24;100.00;100602.53;5036338;28;20047;-66
2021/01/17 07:15:08;;;;;;;46.33;22.73;;;;;;;-0.22;100.00;100600.69;5035128;28;20044;-67
2021/01/17 07:18:00;;;;;;;45.88;22.60;;;;;;;-0.16;100.00;100608.25;5036033;28;20107;-64
2021/01/17 07:20:46;;;;;;;45.83;22.05;;;;;;;-0.19;100.00;100616.25;5036535;28;20052;-66
2021/01/17 07:23:31;;;;;;;48.83;23.45;;;;;;;-0.19;100.00;100624.13;5034987;28;20060;-66
2021/01/17 07:26:19;;;;;;;48.75;22.60;;;;;;;-0.15;100.00;100612.56;5034829;28;20095;-65
2021/01/17 07:29:07;;;;;;;42.47;22.15;;;;;;;-0.20;100.00;100627.66;5036258;28;20461;-67
2021/01/17 07:31:54;;;;;;;49.88;23.33;;;;;;;-0.15;100.00;100628.28;5036419;28;20080;-67
2021/01/17 07:35:00;;;;;;;;;;;;;;;;;;;;;
2021/01/17 07:38:55;;;;;;;44.80;20.38;;;;;;;-0.08;100.00;100627.09;5041159;28;20059;-66
2021/01/17 07:41:56;;;;;;;44.13;21.52;;;;;;;-0.07;100.00;100630.50;5040179;28;20048;-65
2021/01/17 07:45:18;;;;;;;48.60;23.10;;;;;;;-0.03;100.00;100634.69;5039761;28;20052;-66
2021/01/17 07:48:25;;;;;;;45.75;21.92;;;;;;;-0.03;100.00;100646.94;5039203;28;20369;-66
2021/01/17 07:51:13;;;;;;;44.22;21.13;;;;;;;0.02;100.00;100645.81;5036114;28;20048;-68
2021/01/17 07:54:05;;;;;;;44.00;22.13;;;;;;;0.06;100.00;100646.53;5038046;28;20095;-67
2021/01/17 07:56:50;;;;;;;40.80;19.50;;;;;;;0.01;100.00;100657.22;5036472;28;20568;-67
2021/01/17 07:59:33;;;;;;;47.33;23.08;;;;;;;0.09;100.00;100657.72;5036873;28;20072;-67
2021/01/17 08:02:24;;;;;;;46.33;21.90;;;;;;;0.09;100.00;100662.97;5022824;28;20052;-68
2021/01/17 08:05:13;;;;;;;44.90;21.70;;;;;;;0.17;100.00;100663.47;5036969;28;20068;-67
2021/01/17 08:07:57;;;;;;;;;;;;;;;0.19;100.00;100666.00;5038166;28;20092;-66
2021/01/17 08:10:41;;;;;;;32.92;14.68;;;;;;;0.16;100.00;100682.75;5036279;28;20443;-67
2021/01/17 08:13:29;;;;;;;43.13;21.42;;;;;;;0.17;100.00;100679.22;5036269;28;20520;-66
2021/01/17 08:16:14;;;;;;;41.00;21.08;;;;;;;0.21;100.00;100687.78;5036555;28;20052;-67
2021/01/17 08:18:59;;;;;;;42.22;20.80;;;;;;;0.24;100.00;100685.84;5036018;28;20087;-67
2021/01/17 08:21:43;;;;;;;45.97;20.52;;;;;;;0.22;100.00;100677.22;5037618;28;20068;-67
2021/01/17 08:24:40;;;;;;;43.53;21.45;;;;;;;0.27;100.00;100680.50;5036777;28;20133;-67
2021/01/17 08:27:32;;;;;;;47.50;22.02;;;;;;;0.26;100.00;100694.53;5037616;28;20056;-68
2021/01/17 08:30:20;;;;;;;43.92;22.80;;;;;;;0.28;100.00;100691.81;5036833;28;20474;-68
2021/01/17 08:33:10;;;;;;;44.67;22.77;;;;;;;0.31;100.00;100695.16;5036528;28;20052;-68
2021/01/17 08:35:55;;;;;;;44.17;21.67;;;;;;;0.30;100.00;100690.84;5035267;28;20080;-66
2021/01/17 08:38:39;;;;;;;44.67;20.58;;;;;;;0.32;100.00;100690.78;5035341;28;20056;-67
2021/01/17 08:41:27;;;;;;;;;;;;;;;0.32;100.00;100688.97;5037127;28;20437;-66
2021/01/17 08:44:13;;;;;;;43.22;19.13;;;;;;;0.43;100.00;100685.88;5036494;28;19927;-67
2021/01/17 08:46:57;;;;;;;43.67;20.13;;;;;;;0.43;100.00;100685.88;5035496;28;20573;-67
2021/01/17 08:49:41;;;;;;;;;;;;;;;0.48;100.00;100692.63;5021082;28;20569;-66
2021/01/17 08:52:30;;;;;;;41.33;20.10;;;;;;;0.50;100.00;100703.88;5035973;28;20011;-68
2021/01/17 08:55:37;;;;;;;38.22;19.85;;;;;;;0.53;100.00;100702.91;5020744;28;20049;-67
2021/01/17 08:58:24;;;;;;;40.25;19.40;;;;;;;0.55;100.00;100701.03;5034255;28;20044;-67
2021/01/17 09:01:09;;;;;;;38.08;18.27;;;;;;;0.58;100.00;100711.38;5034823;28;20091;-67
2021/01/17 09:04:00;;;;;;;39.30;17.92;;;;;;;0.66;100.00;100709.25;5034252;28;20139;-66
2021/01/17 09:06:45;;;;;;;36.83;17.35;;;;;;;0.57;100.00;100712.31;5035702;28;20398;-67
2021/01/17 09:09:29;;;;;;;40.50;19.83;;;;;;;0.66;100.00;100714.50;5035276;28;20100;-67
2021/01/17 09:12:13;;;;;;;36.78;18.90;;;;;;;0.73;100.00;100718.56;5035683;28;20049;-68
2021/01/17 09:14:58;;;;;;;40.53;19.23;;;;;;;0.70;100.00;100722.16;5022490;28;20047;-68
2021/01/17 09:17:43;;;;;;;39.33;19.63;;;;;;;0.76;100.00;100721.84;5036177;28;20044;-68
2021/01/17 09:20:28;;;;;;;35.97;19.10;;;;;;;0.80;100.00;100719.94;5036434;28;20076;-68
2021/01/17 09:23:12;;;;;;;38.13;19.25;;;;;;;0.82;100.00;100731.25;5036604;28;20060;-68
2021/01/17 09:26:00;;;;;;;36.17;19.80;;;;;;;0.80;100.00;100736.56;5021533;28;20583;-68
2021/01/17 09:28:44;;;;;;;36.20;19.95;;;;;;;0.84;100.00;100740.72;5037386;28;20505;-68
2021/01/17 09:31:29;;;;;;;40.85;18.67;;;;;;;0.86;100.00;100738.88;5036657;28;20098;-67
2021/01/17 09:34:13;;;;;;;37.65;18.98;;;;;;;0.94;100.00;100741.16;5036400;28;20052;-67
2021/01/17 09:36:59;;;;;;;35.78;18.33;;;;;;;0.99;100.00;100734.78;5021886;28;20043;-67
2021/01/17 09:39:48;;;;;;;37.65;18.38;;;;;;;0.98;100.00;100742.72;5035992;28;20141;-67
2021/01/17 09:42:33;;;;;;;36.97;18.25;;;;;;;1.04;100.00;100743.25;5038039;28;20048;-67
2021/01/17 09:45:18;;;;;;;43.20;20.73;;;;;;;1.07;100.00;100748.34;5038434;28;20045;-66
2021/01/17 09:48:03;;;;;;;36.80;18.33;;;;;;;1.11;100.00;100738.56;5039324;28;20168;-67
2021/01/17 09:50:47;;;;;;;35.97;18.55;;;;;;;1.22;100.00;100752.88;5058234;23;20188;-70
2021/01/17 09:53:31;;;;;;;33.90;16.90;;;;;;;1.29;100.00;100756.94;4974713;28;20054;-67
2021/01/17 09:56:15;;;;;;;;;;;;;;;1.30;100.00;100761.25;4975055;28;20475;-69
2021/01/17 09:59:01;;;;;;;38.97;18.73;;;;;;;1.30;100.00;100763.88;4974818;28;20017;-69
2021/01/17 10:01:46;;;;;;;35.78;17.95;;;;;;;1.31;100.00;100770.81;4974498;28;20065;-69
2021/01/17 10:04:30;;;;;;;32.83;18.00;;;;;;;1.39;100.00;100773.94;4973246;28;20101;-69
2021/01/17 10:07:20;;;;;;;34.13;18.38;;;;;;;1.44;100.00;100779.81;4974311;28;20050;-69
2021/01/17 10:10:09;;;;;;;35.85;19.20;;;;;;;1.46;100.00;100780.56;4973555;28;20420;-67
2021/01/17 10:12:52;;;;;;;35.83;17.33;;;;;;;1.44;100.00;100779.81;4973202;28;20061;-66
2021/01/17 10:15:37;;;;;;;38.17;18.20;;;;;;;1.50;100.00;100769.00;4974555;28;20102;-67
2021/01/17 10:18:25;;;;;;;31.08;14.68;;;;;;;1.46;100.00;100775.31;4974505;28;20065;-67
2021/01/17 10:21:09;;;;;;;32.40;17.05;;;;;;;1.41;100.00;100772.06;4974343;28;20069;-66
2021/01/17 10:23:52;;;;;;;39.35;19.00;;;;;;;1.52;100.00;100780.28;4973315;28;20197;-68
2021/01/17 10:26:37;;;;;;;38.65;17.92;;;;;;;1.53;100.00;100779.34;4974150;28;20054;-68
2021/01/17 10:29:23;;;;;;;33.05;17.75;;;;;;;1.62;100.00;100775.41;4974126;28;20102;-68
2021/01/17 10:32:09;;;;;;;33.28;17.55;;;;;;;1.65;100.00;100770.03;4973449;28;20049;-68
2021/01/17 10:34:53;;;;;;;30.63;15.98;;;;;;;1.70;100.00;100766.25;4973320;28;20109;-69
2021/01/17 10:37:37;;;;;;;30.42;16.27;;;;;;;1.85;100.00;100762.81;4973633;28;20116;-69
2021/01/17 10:40:26;;;;;;;30.88;16.88;;;;;;;2.04;100.00;100771.47;4973225;28;20054;-66
2021/01/17 10:43:13;;;;;;;30.10;15.98;;;;;;;2.00;100.00;100767.31;4973864;28;20073;-65
2021/01/17 10:46:06;;;;;;;28.63;15.20;;;;;;;1.99;100.00;100770.84;4974019;28;20145;-63
2021/01/17 10:49:01;;;;;;;29.50;14.60;;;;;;;2.07;100.00;100771.31;4973591;28;20049;-66
2021/01/17 10:51:51;;;;;;;28.23;15.73;;;;;;;2.27;100.00;100773.75;4973937;28;20097;-65
2021/01/17 10:54:36;;;;;;;29.83;15.60;;;;;;;2.26;100.00;100774.69;4972837;28;20054;-66
2021/01/17 10:57:21;;;;;;;28.00;14.32;;;;;;;2.23;100.00;100787.16;4972905;28;20538;-65
2021/01/17 11:00:08;;;;;;;27.83;15.43;;;;;;;2.34;100.00;100775.13;4973880;28;20053;-65
2021/01/17 11:03:01;;;;;;;30.15;15.82;;;;;;;2.21;100.00;100768.84;4959417;28;20562;-65
2021/01/17 11:05:47;;;;;;;28.20;15.18;;;;;;;2.12;100.00;100766.69;4972872;28;20058;-66
2021/01/17 11:08:33;;;;;;;33.17;17.02;;;;;;;2.12;100.00;100765.81;4974064;28;20105;-66
2021/01/17 11:11:18;;;;;;;27.08;14.25;;;;;;;2.13;100.00;100780.66;4972924;28;20105;-66
2021/01/17 11:14:04;;;;;;;31.48;15.98;;;;;;;2.15;100.00;100773.53;4976835;28;20053;-66
2021/01/17 11:16:50;;;;;;;28.42;16.05;;;;;;;2.28;100.00;100764.94;4976204;28;20081;-66
2021/01/17 11:19:40;;;;;;;28.98;15.55;;;;;;;2.25;100.00;100767.72;4976184;28;20045;-66
2021/01/17 11:22:24;;;;;;;28.98;14.57;;;;;;;2.24;100.00;100773.94;4976050;28;20101;-66
2021/01/17 11:25:17;;;;;;;27.58;15.52;;;;;;;2.27;100.00;100772.91;4977197;28;20077;-65
2021/01/17 11:28:03;;;;;;;18.95;8.82;;;;;;;2.23;100.00;100755.56;4977247;28;20050;-65
2021/01/17 11:30:47;;;;;;;26.00;14.50;;;;;;;2.16;100.00;100770.84;4977123;28;20058;-66
